createdAt,value
2017-10-13T00:01:21.779Z,4.70
2017-10-13T00:03:48.209Z,6.10
2017-10-13T00:06:14.629Z,4.43
2017-10-13T00:08:41.057Z,5.27
2017-10-13T00:11:07.385Z,5.13
2017-10-13T00:13:34.515Z,5.70
2017-10-13T00:16:00.880Z,5.20
2017-10-13T00:18:27.228Z,4.97
2017-10-13T00:20:53.609Z,5.20
2017-10-13T00:23:19.949Z,5.30
2017-10-13T00:25:46.326Z,6.07
2017-10-13T00:28:12.673Z,5.27
2017-10-13T00:30:39.041Z,7.00
2017-10-13T00:33:05.412Z,7.37
2017-10-13T00:35:32.554Z,7.00
2017-10-13T00:37:58.924Z,7.10
2017-10-13T00:40:26.049Z,7.30
2017-10-13T00:42:52.424Z,7.27
2017-10-13T00:45:18.819Z,6.40
2017-10-13T00:47:45.184Z,6.70
2017-10-13T00:50:11.602Z,6.00
2017-10-13T00:52:37.977Z,6.60
2017-10-13T00:55:04.369Z,7.50
2017-10-13T00:57:30.969Z,6.97
2017-10-13T00:59:57.304Z,6.37
2017-10-13T01:02:30.084Z,6.47
2017-10-13T01:04:56.407Z,7.70
2017-10-13T01:07:22.757Z,6.33
2017-10-13T01:09:49.112Z,7.40
2017-10-13T01:12:16.979Z,6.47
2017-10-13T01:14:43.283Z,5.67
2017-10-13T01:17:15.820Z,6.90
2017-10-13T01:19:42.179Z,6.00
2017-10-13T01:22:09.364Z,6.60
2017-10-13T01:24:35.711Z,5.00
2017-10-13T01:27:02.807Z,4.80
2017-10-13T01:29:29.184Z,6.17
2017-10-13T01:31:55.538Z,4.80
2017-10-13T01:34:21.896Z,4.83
2017-10-13T01:36:48.259Z,6.50
2017-10-13T01:39:15.376Z,5.77
2017-10-13T01:41:41.724Z,5.73
2017-10-13T01:44:08.086Z,5.70
2017-10-13T01:46:34.403Z,4.67
2017-10-13T01:49:00.760Z,4.73
2017-10-13T01:51:27.095Z,5.57
2017-10-13T01:53:53.492Z,6.07
2017-10-13T01:56:19.883Z,6.33
2017-10-13T01:58:47.004Z,4.50
2017-10-13T02:01:13.336Z,5.80
2017-10-13T02:03:39.747Z,6.97
2017-10-13T02:06:06.841Z,5.60
2017-10-13T02:08:33.198Z,5.17
2017-10-13T02:10:59.549Z,4.77
2017-10-13T02:13:25.884Z,6.50
2017-10-13T02:15:52.244Z,6.53
2017-10-13T02:18:18.660Z,7.10
2017-10-13T02:20:45.744Z,5.40
2017-10-13T02:23:12.063Z,8.30
2017-10-13T02:25:38.460Z,6.00
2017-10-13T02:28:05.564Z,6.00
2017-10-13T02:30:31.911Z,5.93
2017-10-13T02:32:58.260Z,5.50
2017-10-13T02:35:24.614Z,6.90
2017-10-13T02:37:52.469Z,5.87
2017-10-13T02:40:19.607Z,5.63
2017-10-13T02:42:45.952Z,6.13
2017-10-13T02:45:12.284Z,5.70
2017-10-13T02:47:38.642Z,3.93
2017-10-13T02:50:05.722Z,6.37
2017-10-13T02:52:32.108Z,5.47
2017-10-13T02:54:58.529Z,5.33
2017-10-13T02:57:25.028Z,5.63
2017-10-13T02:59:51.349Z,5.20
2017-10-13T03:02:17.716Z,5.10
2017-10-13T03:04:44.039Z,5.87
2017-10-13T03:07:10.383Z,5.20
2017-10-13T03:09:37.483Z,5.17
2017-10-13T03:12:03.896Z,5.00
2017-10-13T03:14:30.971Z,6.00
2017-10-13T03:16:58.112Z,6.90
2017-10-13T03:19:24.434Z,6.47
2017-10-13T03:21:50.808Z,5.50
2017-10-13T03:24:17.163Z,4.70
2017-10-13T03:26:43.510Z,5.27
2017-10-13T03:29:10.604Z,6.40
2017-10-13T03:31:36.931Z,4.60
2017-10-13T03:34:03.284Z,6.17
2017-10-13T03:36:29.804Z,4.43
2017-10-13T03:38:56.887Z,5.27
2017-10-13T03:41:23.344Z,6.03
2017-10-13T03:43:49.788Z,6.93
2017-10-13T03:46:16.172Z,5.30
2017-10-13T03:48:42.525Z,6.60
2017-10-13T03:51:09.633Z,6.63
2017-10-13T03:53:36.051Z,6.00
2017-10-13T03:56:02.647Z,5.47
2017-10-13T03:58:29.142Z,5.50
2017-10-13T04:00:55.466Z,5.83
2017-10-13T04:03:21.796Z,5.10
2017-10-13T04:05:48.171Z,7.43
2017-10-13T04:08:14.541Z,6.60
2017-10-13T04:10:40.951Z,6.10
2017-10-13T04:13:08.048Z,5.20
2017-10-13T04:15:34.372Z,5.30
2017-10-13T04:18:01.448Z,8.10
2017-10-13T04:20:27.772Z,5.07
2017-10-13T04:22:54.117Z,6.37
2017-10-13T04:25:20.450Z,6.97
2017-10-13T04:27:47.567Z,5.57
2017-10-13T04:30:13.952Z,5.10
2017-10-13T04:32:41.114Z,6.57
2017-10-13T04:35:07.476Z,7.20
2017-10-13T04:37:33.851Z,6.70
2017-10-13T04:40:00.215Z,7.27
2017-10-13T04:42:26.569Z,8.30
2017-10-13T04:44:52.911Z,6.93
2017-10-13T04:47:19.223Z,7.60
2017-10-13T04:49:45.592Z,5.97
2017-10-13T04:52:12.019Z,7.03
2017-10-13T04:54:39.213Z,11.00
2017-10-13T04:57:05.560Z,7.93
2017-10-13T04:59:31.907Z,6.17
2017-10-13T05:01:58.964Z,4.63
2017-10-13T05:04:25.391Z,6.20
2017-10-13T05:06:51.799Z,6.03
2017-10-13T05:09:18.212Z,6.83
2017-10-13T05:11:45.344Z,5.87
2017-10-13T05:14:12.439Z,5.70
2017-10-13T05:16:38.747Z,6.23
2017-10-13T05:19:05.820Z,4.77
2017-10-13T05:21:32.924Z,5.87
2017-10-13T05:23:59.256Z,5.87
2017-10-13T05:26:25.612Z,7.10
2017-10-13T05:28:51.973Z,7.23
2017-10-13T05:31:18.379Z,5.87
2017-10-13T05:33:44.797Z,5.73
2017-10-13T05:36:11.235Z,6.30
2017-10-13T05:38:38.374Z,5.43
2017-10-13T05:41:04.741Z,6.07
2017-10-13T05:43:31.602Z,6.00
2017-10-13T05:45:58.072Z,7.00
2017-10-13T05:48:24.536Z,6.73
2017-10-13T05:50:50.898Z,6.60
2017-10-13T05:53:17.305Z,7.00
2017-10-13T05:55:43.664Z,5.90
2017-10-13T05:58:10.047Z,8.43
2017-10-13T06:00:36.419Z,7.67
2017-10-13T06:03:02.888Z,7.10
2017-10-13T06:05:29.390Z,6.30
2017-10-13T06:07:55.950Z,7.47
2017-10-13T06:10:22.364Z,6.57
2017-10-13T06:12:48.721Z,7.63
2017-10-13T06:15:15.119Z,6.33
2017-10-13T06:17:41.547Z,7.43
2017-10-13T06:20:07.942Z,7.20
2017-10-13T06:22:35.257Z,7.03
2017-10-13T06:25:01.652Z,7.27
2017-10-13T06:27:28.778Z,7.57
2017-10-13T06:29:55.928Z,8.17
2017-10-13T06:32:22.303Z,6.53
2017-10-13T06:34:50.128Z,6.27
2017-10-13T06:37:16.543Z,7.47
2017-10-13T06:39:43.680Z,6.87
2017-10-13T06:42:10.128Z,6.60
2017-10-13T06:44:36.513Z,8.23
2017-10-13T06:47:03.709Z,7.37
2017-10-13T06:49:30.878Z,7.13
2017-10-13T06:51:57.299Z,7.00
2017-10-13T06:54:23.680Z,9.07
2017-10-13T06:56:50.692Z,8.70
2017-10-13T06:59:17.119Z,7.50
2017-10-13T07:01:43.569Z,8.43
2017-10-13T07:04:10.037Z,8.40
2017-10-13T07:06:36.519Z,9.13
2017-10-13T07:09:03.699Z,9.40
2017-10-13T07:11:30.326Z,10.10
2017-10-13T07:13:56.792Z,9.53
2017-10-13T07:16:23.928Z,8.50
2017-10-13T07:18:50.324Z,9.87
2017-10-13T07:21:16.760Z,9.27
2017-10-13T07:23:43.156Z,9.60
2017-10-13T07:26:09.690Z,8.73
2017-10-13T07:28:36.088Z,10.70
2017-10-13T07:31:02.539Z,8.97
2017-10-13T07:33:28.911Z,9.20
2017-10-13T07:35:55.316Z,10.00
2017-10-13T07:38:22.447Z,8.30
2017-10-13T07:40:48.818Z,7.50
2017-10-13T07:43:15.203Z,6.87
2017-10-13T07:45:41.596Z,7.87
2017-10-13T07:48:08.003Z,8.30
2017-10-13T07:50:34.380Z,7.20
2017-10-13T07:53:00.747Z,6.80
2017-10-13T07:55:27.120Z,6.97
2017-10-13T07:57:53.546Z,7.43
2017-10-13T08:00:19.923Z,6.17
2017-10-13T08:02:46.390Z,7.23
2017-10-13T08:05:13.523Z,7.33
2017-10-13T08:07:39.908Z,7.40
2017-10-13T08:10:07.028Z,7.87
2017-10-13T08:12:35.315Z,8.20
2017-10-13T08:15:01.671Z,8.60
2017-10-13T08:17:28.040Z,9.50
2017-10-13T08:19:54.604Z,9.70
2017-10-13T08:22:21.760Z,9.90
2017-10-13T08:24:48.169Z,8.93
2017-10-13T08:27:14.599Z,9.60
2017-10-13T08:29:41.064Z,10.17
2017-10-13T08:32:07.550Z,9.93
2017-10-13T08:34:33.940Z,9.97
2017-10-13T08:37:00.319Z,9.03
2017-10-13T08:39:26.716Z,9.93
2017-10-13T08:41:53.136Z,8.60
2017-10-13T08:44:19.658Z,10.27
2017-10-13T08:46:46.096Z,10.00
2017-10-13T08:49:12.452Z,10.03
2017-10-13T08:51:38.835Z,11.00
2017-10-13T08:54:05.223Z,10.63
2017-10-13T08:56:31.607Z,10.23
2017-10-13T08:58:57.976Z,10.03
2017-10-13T09:01:24.358Z,9.20
2017-10-13T09:03:51.847Z,9.87
2017-10-13T09:06:18.269Z,9.80
2017-10-13T09:08:45.108Z,8.77
2017-10-13T09:11:11.527Z,7.87
2017-10-13T09:13:37.935Z,8.87
2017-10-13T09:16:05.046Z,7.23
2017-10-13T09:18:31.475Z,8.47
2017-10-13T09:20:57.894Z,7.77
2017-10-13T09:23:24.336Z,8.77
2017-10-13T09:25:50.727Z,8.60
2017-10-13T09:28:17.164Z,6.90
2017-10-13T09:30:43.587Z,7.83
2017-10-13T09:33:09.985Z,7.17
2017-10-13T09:35:36.472Z,6.77
2017-10-13T09:38:06.144Z,7.80
2017-10-13T09:40:32.573Z,7.63
2017-10-13T09:42:58.987Z,6.37
2017-10-13T09:45:25.427Z,7.50
2017-10-13T09:47:51.874Z,6.33
2017-10-13T09:50:20.396Z,6.33
2017-10-13T09:52:47.517Z,8.10
2017-10-13T09:55:14.712Z,7.00
2017-10-13T09:57:41.898Z,6.70
2017-10-13T10:00:08.333Z,6.70
2017-10-13T10:02:34.739Z,6.70
2017-10-13T10:05:04.304Z,7.63
2017-10-13T10:07:31.448Z,7.37
2017-10-13T10:09:57.926Z,8.40
2017-10-13T10:12:25.734Z,7.33
2017-10-13T10:14:52.123Z,6.73
2017-10-13T10:17:18.604Z,7.03
2017-10-13T10:19:45.760Z,7.20
2017-10-13T10:22:12.272Z,7.70
2017-10-13T10:24:38.647Z,6.53
2017-10-13T10:27:05.058Z,6.17
2017-10-13T10:29:32.325Z,6.67
2017-10-13T10:31:59.659Z,7.27
2017-10-13T10:34:26.191Z,5.50
2017-10-13T10:36:52.588Z,6.10
2017-10-13T10:39:19.720Z,6.17
2017-10-13T10:41:46.099Z,5.37
2017-10-13T10:44:12.527Z,6.00
2017-10-13T10:46:38.937Z,5.03
2017-10-13T10:49:05.369Z,6.13
2017-10-13T10:51:32.573Z,6.50
2017-10-13T10:53:58.998Z,5.43
2017-10-13T10:56:25.380Z,6.10
2017-10-13T10:58:51.759Z,5.40
2017-10-13T11:01:18.863Z,5.23
2017-10-13T11:03:45.232Z,4.67
2017-10-13T11:06:12.346Z,5.13
2017-10-13T11:08:38.689Z,5.10
2017-10-13T11:11:05.724Z,3.97
2017-10-13T11:13:32.128Z,4.87
2017-10-13T11:15:58.543Z,5.27
2017-10-13T11:18:25.678Z,3.70
2017-10-13T11:20:52.058Z,3.87
2017-10-13T11:23:18.487Z,3.20
2017-10-13T11:25:44.885Z,3.60
2017-10-13T11:28:11.263Z,3.10
2017-10-13T11:30:37.665Z,3.40
2017-10-13T11:33:04.111Z,3.73
2017-10-13T11:35:31.272Z,2.90
2017-10-13T11:37:57.663Z,3.13
2017-10-13T11:40:24.924Z,3.00
2017-10-13T11:42:51.468Z,2.87
2017-10-13T11:45:17.957Z,2.30
2017-10-13T11:47:44.332Z,3.23
2017-10-13T11:50:11.295Z,2.80
2017-10-13T11:52:40.941Z,2.27
2017-10-13T11:55:07.295Z,2.70
2017-10-13T11:57:33.696Z,2.70
2017-10-13T12:00:00.821Z,2.43
2017-10-13T12:02:27.240Z,2.43
2017-10-13T12:04:53.668Z,3.80
2017-10-13T12:07:20.017Z,3.50
2017-10-13T12:09:46.427Z,3.50
2017-10-13T12:12:12.761Z,3.10
2017-10-13T12:14:39.911Z,3.53
2017-10-13T12:17:06.300Z,3.40
2017-10-13T12:19:32.748Z,3.00
2017-10-13T12:21:59.134Z,3.57
2017-10-13T12:24:26.240Z,3.83
2017-10-13T12:26:52.793Z,3.53
2017-10-13T12:29:19.165Z,3.57
2017-10-13T12:31:45.543Z,3.63
2017-10-13T12:34:12.120Z,3.83
2017-10-13T12:36:39.284Z,4.10
2017-10-13T12:39:05.731Z,3.50
2017-10-13T12:41:32.124Z,3.67
2017-10-13T12:43:59.322Z,3.57
2017-10-13T12:46:26.396Z,3.77
2017-10-13T12:48:52.799Z,3.27
2017-10-13T12:51:20.066Z,3.90
2017-10-13T12:53:46.446Z,3.43
2017-10-13T12:56:13.011Z,4.50
2017-10-13T12:58:39.397Z,4.80
2017-10-13T13:01:06.568Z,4.30
2017-10-13T13:03:35.132Z,4.67
2017-10-13T13:06:01.515Z,4.67
2017-10-13T13:08:27.889Z,3.97
2017-10-13T13:10:54.248Z,4.30
2017-10-13T13:13:20.648Z,3.50
2017-10-13T13:15:47.031Z,4.30
2017-10-13T13:18:15.277Z,3.67
2017-10-13T13:20:41.941Z,4.77
2017-10-13T13:23:09.146Z,4.10
2017-10-13T13:25:35.560Z,4.83
2017-10-13T13:28:01.979Z,4.63
2017-10-13T13:30:28.376Z,4.63
2017-10-13T13:32:54.782Z,4.90
2017-10-13T13:35:21.176Z,3.60
2017-10-13T13:37:48.607Z,3.60
2017-10-13T13:40:14.999Z,3.80
2017-10-13T13:42:41.388Z,4.13
2017-10-13T13:45:07.763Z,4.80
2017-10-13T13:47:34.151Z,3.10
2017-10-13T13:50:02.664Z,3.43
2017-10-13T13:52:29.285Z,3.67
2017-10-13T13:54:55.689Z,4.43
2017-10-13T13:57:22.096Z,3.60
2017-10-13T13:59:49.249Z,3.43
2017-10-13T14:02:15.682Z,3.50
2017-10-13T14:04:43.192Z,4.83
2017-10-13T14:07:09.595Z,3.70
2017-10-13T14:09:36.007Z,3.07
2017-10-13T14:12:02.388Z,2.90
2017-10-13T14:14:29.798Z,3.97
2017-10-13T14:16:56.269Z,3.50
2017-10-13T14:19:22.650Z,3.77
2017-10-13T14:21:49.024Z,3.87
2017-10-13T14:24:15.427Z,4.80
2017-10-13T14:26:41.806Z,4.07
2017-10-13T14:29:08.145Z,3.63
2017-10-13T14:31:36.380Z,3.77
2017-10-13T14:34:02.735Z,4.30
2017-10-13T14:36:30.028Z,4.20
2017-10-13T14:38:57.297Z,4.10
2017-10-13T14:41:24.960Z,3.50
2017-10-13T14:43:52.127Z,4.57
2017-10-13T14:46:18.538Z,4.33
2017-10-13T14:48:45.727Z,4.80
2017-10-13T14:51:12.125Z,3.93
2017-10-13T14:53:38.528Z,5.03
2017-10-13T14:56:04.957Z,4.50
2017-10-13T14:58:32.071Z,5.03
2017-10-13T15:00:58.588Z,4.40
2017-10-13T15:03:25.193Z,4.30
2017-10-13T15:05:51.577Z,4.47
2017-10-13T15:08:17.958Z,5.00
2017-10-13T15:10:44.323Z,4.37
2017-10-13T15:13:11.462Z,4.37
2017-10-13T15:15:37.856Z,3.73
2017-10-13T15:18:04.227Z,3.77
2017-10-13T15:20:30.624Z,3.30
2017-10-13T15:22:57.043Z,4.17
2017-10-13T15:25:30.185Z,4.13
2017-10-13T15:28:02.658Z,3.77
2017-10-13T15:30:35.204Z,4.00
2017-10-13T15:33:08.543Z,4.40
2017-10-13T15:35:41.305Z,4.13
2017-10-13T15:41:18.399Z,3.80
2017-10-13T15:47:19.953Z,4.17
2017-10-13T15:52:46.194Z,4.10
2017-10-13T15:55:12.603Z,4.37
2017-10-13T15:57:38.961Z,4.40
2017-10-13T16:00:05.378Z,4.73
2017-10-13T16:02:31.755Z,4.40
2017-10-13T16:04:58.104Z,4.80
2017-10-13T16:07:24.544Z,3.83
2017-10-13T16:09:50.876Z,4.87
2017-10-13T16:12:17.291Z,4.50
2017-10-13T16:14:43.688Z,4.30
2017-10-13T16:17:10.079Z,4.37
2017-10-13T16:19:36.484Z,4.37
2017-10-13T16:22:02.841Z,4.40
2017-10-13T16:24:29.368Z,3.60
2017-10-13T16:26:55.706Z,4.07
2017-10-13T16:29:22.152Z,4.30
2017-10-13T16:31:48.584Z,5.03
2017-10-13T16:34:14.993Z,5.07
2017-10-13T16:36:41.371Z,4.80
2017-10-13T16:39:08.563Z,5.03
2017-10-13T16:41:35.248Z,4.27
2017-10-13T16:44:01.736Z,4.17
2017-10-13T16:46:28.146Z,4.40
2017-10-13T16:48:54.573Z,3.97
2017-10-13T16:51:21.052Z,5.60
2017-10-13T16:53:48.243Z,4.93
2017-10-13T16:56:15.431Z,5.70
2017-10-13T16:58:41.800Z,4.50
2017-10-13T17:01:08.196Z,5.77
2017-10-13T17:03:34.610Z,6.27
2017-10-13T17:06:01.124Z,4.77
2017-10-13T17:08:27.531Z,4.07
2017-10-13T17:10:53.992Z,4.50
2017-10-13T17:13:22.285Z,3.77
2017-10-13T17:15:48.650Z,4.67
2017-10-13T17:18:15.785Z,4.30
2017-10-13T17:20:42.937Z,4.43
2017-10-13T17:23:09.293Z,5.00
2017-10-13T17:25:35.621Z,4.20
2017-10-13T17:28:02.016Z,5.00
2017-10-13T17:30:28.443Z,5.70
2017-10-13T17:32:54.864Z,4.87
2017-10-13T17:35:21.186Z,5.10
2017-10-13T17:37:47.560Z,4.30
2017-10-13T17:40:13.984Z,4.17
2017-10-13T17:42:40.351Z,4.80
2017-10-13T17:45:06.759Z,5.50
2017-10-13T17:47:33.071Z,5.30
2017-10-13T17:49:59.464Z,5.83
2017-10-13T17:52:26.572Z,4.00
2017-10-13T17:54:52.934Z,4.33
2017-10-13T17:57:19.275Z,5.23
2017-10-13T17:59:45.668Z,5.10
2017-10-13T18:02:12.030Z,4.40
2017-10-13T18:04:38.415Z,4.50
2017-10-13T18:07:04.764Z,5.03
2017-10-13T18:09:31.132Z,5.77
2017-10-13T18:11:57.524Z,4.97
2017-10-13T18:14:23.948Z,5.20
2017-10-13T18:16:51.239Z,6.00
2017-10-13T18:19:17.585Z,6.23
2017-10-13T18:21:43.932Z,7.00
2017-10-13T18:24:10.316Z,6.37
2017-10-13T18:26:38.180Z,6.90
2017-10-13T18:29:04.523Z,5.87
2017-10-13T18:31:30.992Z,6.33
2017-10-13T18:33:57.356Z,6.97
2017-10-13T18:36:23.728Z,7.40
2017-10-13T18:38:50.056Z,4.97
2017-10-13T18:41:16.399Z,6.93
2017-10-13T18:43:43.499Z,6.73
2017-10-13T18:46:09.872Z,5.90
2017-10-13T18:48:37.016Z,6.50
2017-10-13T18:51:03.518Z,5.73
2017-10-13T18:53:29.891Z,6.60
2017-10-13T18:55:56.238Z,6.40
2017-10-13T18:58:22.580Z,6.90
2017-10-13T19:00:49.653Z,6.40
2017-10-13T19:03:15.971Z,6.77
2017-10-13T19:05:42.367Z,7.30
2017-10-13T19:08:10.154Z,8.00
2017-10-13T19:10:36.479Z,6.67
2017-10-13T19:13:02.786Z,8.10
2017-10-13T19:15:29.326Z,6.73
2017-10-13T19:17:56.432Z,7.40
2017-10-13T19:20:23.560Z,8.60
2017-10-13T19:22:49.899Z,10.90
2017-10-13T19:25:16.224Z,8.67
2017-10-13T19:27:42.598Z,10.37
2017-10-13T19:30:08.915Z,10.10
2017-10-13T19:32:35.251Z,11.20
2017-10-13T19:35:01.572Z,10.20
2017-10-13T19:37:27.924Z,12.10
2017-10-13T19:39:54.308Z,11.30
2017-10-13T19:42:21.628Z,11.60
2017-10-13T19:44:47.993Z,9.87
2017-10-13T19:47:14.330Z,11.70
2017-10-13T19:49:40.701Z,10.23
2017-10-13T19:52:07.964Z,11.40
2017-10-13T19:54:34.288Z,10.37
2017-10-13T19:57:00.643Z,10.73
2017-10-13T19:59:27.030Z,11.70
2017-10-13T20:01:53.344Z,10.10
2017-10-13T20:04:20.455Z,10.97
2017-10-13T20:06:46.817Z,9.40
2017-10-13T20:09:13.143Z,11.20
2017-10-13T20:11:39.467Z,9.80
2017-10-13T20:14:06.584Z,12.63
2017-10-13T20:16:32.939Z,12.30
2017-10-13T20:19:00.089Z,15.10
2017-10-13T20:21:27.219Z,13.47
2017-10-13T20:23:53.556Z,15.87
2017-10-13T20:26:19.968Z,12.80
2017-10-13T20:28:46.328Z,13.87
2017-10-13T20:31:12.736Z,14.30
2017-10-13T20:33:39.062Z,13.10
2017-10-13T20:36:06.291Z,12.90
2017-10-13T20:38:32.585Z,12.83
2017-10-13T20:40:59.692Z,11.70
2017-10-13T20:43:26.047Z,11.53
2017-10-13T20:45:52.424Z,11.70
2017-10-13T20:48:18.772Z,13.37
2017-10-13T20:50:45.892Z,12.60
2017-10-13T20:53:12.418Z,13.53
2017-10-13T20:55:38.792Z,12.50
2017-10-13T20:58:05.188Z,12.50
2017-10-13T21:00:31.527Z,13.07
2017-10-13T21:02:57.871Z,12.67
2017-10-13T21:05:24.935Z,11.20
2017-10-13T21:07:51.308Z,12.37
2017-10-13T21:10:17.640Z,12.83
2017-10-13T21:12:44.704Z,12.80
2017-10-13T21:15:11.778Z,12.10
2017-10-13T21:17:38.079Z,12.73
2017-10-13T21:20:04.447Z,12.30
2017-10-13T21:22:30.803Z,12.23
2017-10-13T21:24:57.883Z,11.20
2017-10-13T21:27:24.220Z,11.90
2017-10-13T21:29:50.573Z,13.10
2017-10-13T21:32:16.945Z,11.47
2017-10-13T21:34:43.272Z,12.07
2017-10-13T21:37:09.649Z,12.23
2017-10-13T21:39:35.992Z,13.20
2017-10-13T21:42:02.297Z,12.47
2017-10-13T21:44:28.895Z,12.60
2017-10-13T21:46:55.230Z,11.70
2017-10-13T21:49:21.572Z,11.43
2017-10-13T21:51:48.658Z,11.97
2017-10-13T21:54:14.984Z,10.03
2017-10-13T21:56:41.357Z,9.60
2017-10-13T21:59:07.734Z,9.87
2017-10-13T22:01:34.864Z,11.80
2017-10-13T22:04:01.226Z,10.80
2017-10-13T22:06:27.595Z,11.33
2017-10-13T22:08:54.671Z,11.30
2017-10-13T22:11:21.068Z,11.87
2017-10-13T22:13:47.427Z,12.10
2017-10-13T22:16:13.813Z,11.97
2017-10-13T22:18:40.204Z,10.43
2017-10-13T22:21:06.552Z,12.93
2017-10-13T22:23:33.687Z,12.10
2017-10-13T22:26:00.042Z,11.30
2017-10-13T22:28:27.955Z,12.50
2017-10-13T22:30:55.240Z,11.53
2017-10-13T22:33:21.583Z,12.73
2017-10-13T22:35:47.926Z,12.13
2017-10-13T22:38:14.279Z,12.47
2017-10-13T22:40:41.331Z,11.20
2017-10-13T22:43:08.416Z,13.73
2017-10-13T22:45:34.743Z,12.70
2017-10-13T22:48:01.104Z,13.37
2017-10-13T22:50:27.447Z,13.83
2017-10-13T22:52:53.799Z,11.77
2017-10-13T22:55:20.164Z,11.97
2017-10-13T22:57:46.507Z,12.07
2017-10-13T23:00:12.928Z,11.87
2017-10-13T23:02:39.248Z,11.63
2017-10-13T23:05:05.651Z,11.23
2017-10-13T23:07:31.939Z,10.53
2017-10-13T23:09:58.310Z,15.20
2017-10-13T23:12:24.681Z,13.30
2017-10-13T23:14:51.014Z,12.57
2017-10-13T23:17:18.104Z,12.30
2017-10-13T23:19:44.469Z,14.13
2017-10-13T23:22:10.859Z,14.30
2017-10-13T23:24:37.231Z,12.73
2017-10-13T23:27:03.559Z,12.30
2017-10-13T23:29:29.919Z,13.20
2017-10-13T23:31:56.244Z,12.47
2017-10-13T23:34:23.324Z,13.10
2017-10-13T23:36:49.724Z,13.00
2017-10-13T23:39:16.923Z,13.50
2017-10-13T23:41:43.315Z,13.40
2017-10-13T23:44:09.680Z,13.47
2017-10-13T23:46:35.987Z,11.83
2017-10-13T23:49:02.324Z,13.47
2017-10-13T23:51:28.864Z,12.30
2017-10-13T23:53:55.199Z,11.90
2017-10-13T23:56:21.575Z,13.77
2017-10-13T23:58:47.925Z,12.97
